Time;durP1;ratioP1;P1;durP2;ratioP2;P2;SDS_P1;SDS_P2;PMS_P1;PMS_P2;Temp;Humidity;BMP_temperature;BMP_pressure;BME280_temperature;BME280_humidity;BME280_pressure;Samples;Min_cycle;Max_cycle;Signal;HPM_P1;HPM_P2
2022/10/21 00:01:10;;;;;;;30.95;15.13;;;;;;;13.13;100.00;100715.13;4984323;28;20037;-70
2022/10/21 00:03:36;;;;;;;37.97;14.43;;;;;;;13.09;100.00;100711.78;4988694;28;20116;-69
2022/10/21 00:06:02;;;;;;;24.80;14.13;;;;;;;13.07;100.00;100704.75;4971876;28;20046;-70
2022/10/21 00:08:28;;;;;;;21.90;14.00;;;;;;;13.00;100.00;100693.44;4970970;28;20509;-69
2022/10/21 00:10:56;;;;;;;22.45;13.82;;;;;;;12.99;100.00;100694.47;4972099;28;20030;-70
2022/10/21 00:13:21;;;;;;;23.88;13.93;;;;;;;12.96;100.00;100695.59;4989571;28;20121;-70
2022/10/21 00:15:59;;;;;;;25.38;15.02;;;;;;;12.92;100.00;100691.41;4971569;28;20118;-70
2022/10/21 00:18:25;;;;;;;30.02;13.93;;;;;;;12.92;100.00;100701.44;4970058;28;20478;-70
2022/10/21 00:20:50;;;;;;;24.20;13.93;;;;;;;12.88;100.00;100689.06;4968852;28;20033;-70
2022/10/21 00:23:16;;;;;;;26.77;14.85;;;;;;;12.87;100.00;100693.66;4970005;28;20150;-69
2022/10/21 00:25:41;;;;;;;25.27;14.30;;;;;;;12.84;100.00;100688.44;4970128;28;20031;-70
2022/10/21 00:28:06;;;;;;;24.40;14.15;;;;;;;12.81;100.00;100676.91;4969339;28;20061;-69
2022/10/21 00:30:32;;;;;;;30.38;14.07;;;;;;;12.79;100.00;100679.78;4969527;28;20030;-73
2022/10/21 00:32:57;;;;;;;26.88;14.02;;;;;;;12.74;100.00;100677.44;4968357;28;20039;-71
2022/10/21 00:35:22;;;;;;;25.83;14.13;;;;;;;12.72;100.00;100673.09;4968631;28;20042;-70
2022/10/21 00:37:48;;;;;;;29.98;14.93;;;;;;;12.70;100.00;100673.22;4969796;28;20441;-70
2022/10/21 00:40:13;;;;;;;28.95;15.23;;;;;;;12.69;100.00;100670.63;4970068;28;20094;-70
2022/10/21 00:42:40;;;;;;;27.23;14.48;;;;;;;12.67;100.00;100675.34;4969888;28;20110;-72
2022/10/21 00:45:05;;;;;;;27.33;15.40;;;;;;;12.68;100.00;100677.97;4968089;28;20113;-71
2022/10/21 00:48:06;;;;;;;25.52;15.00;;;;;;;12.69;100.00;100679.69;4969681;28;20483;-69
2022/10/21 00:50:33;;;;;;;29.42;14.52;;;;;;;12.68;100.00;100685.25;4970029;28;20043;-69
2022/10/21 00:53:00;;;;;;;25.15;15.70;;;;;;;12.71;100.00;100687.72;4968327;28;20049;-70
2022/10/21 00:55:30;;;;;;;28.17;16.33;;;;;;;12.72;100.00;100678.53;4969555;28;20142;-69
2022/10/21 00:57:55;;;;;;;28.50;16.17;;;;;;;12.72;100.00;100671.22;4969819;28;20039;-70
2022/10/21 01:00:21;;;;;;;28.80;16.40;;;;;;;12.79;100.00;100668.84;4969078;28;20046;-70
2022/10/21 01:02:46;;;;;;;26.67;15.70;;;;;;;12.81;100.00;100660.53;4969425;28;20118;-72
2022/10/21 01:05:12;;;;;;;23.63;15.23;;;;;;;12.79;100.00;100657.06;4969595;28;20085;-69
2022/10/21 01:07:38;;;;;;;32.47;16.45;;;;;;;12.78;100.00;100656.22;4968405;28;20050;-71
2022/10/21 01:10:04;;;;;;;34.80;16.30;;;;;;;12.79;100.00;100655.19;4969722;28;20034;-70
2022/10/21 01:12:45;;;;;;;31.85;16.02;;;;;;;12.74;100.00;100647.41;4959457;28;20027;-70
2022/10/21 01:15:28;;;;;;;31.00;15.15;;;;;;;12.70;100.00;100642.34;4969183;28;20045;-69
2022/10/21 01:18:23;;;;;;;25.42;15.65;;;;;;;12.72;100.00;100646.66;4952378;28;20043;-70
2022/10/21 01:21:10;;;;;;;26.92;15.15;;;;;;;12.66;100.00;100646.31;4947244;28;20145;-70
2022/10/21 01:24:23;;;;;;;26.10;15.60;;;;;;;12.64;100.00;100640.13;4968564;28;20564;-70
2022/10/21 01:27:03;;;;;;;28.35;14.45;;;;;;;12.61;100.00;100629.47;4956478;28;20054;-70
2022/10/21 01:30:05;;;;;;;28.40;15.60;;;;;;;12.58;100.00;100621.53;4966073;28;20119;-70
2022/10/21 01:33:02;;;;;;;25.48;14.50;;;;;;;12.54;100.00;100620.03;4969252;28;20042;-69
2022/10/21 01:35:40;;;;;;;25.42;13.77;;;;;;;12.51;100.00;100622.06;4968260;28;20074;-69
2022/10/21 01:38:31;;;;;;;25.92;13.63;;;;;;;12.44;100.00;100619.94;4969688;28;20042;-70
2022/10/21 01:41:03;;;;;;;23.33;13.00;;;;;;;12.43;100.00;100618.22;4972733;28;20035;-71
2022/10/21 01:43:37;;;;;;;22.85;14.82;;;;;;;12.38;100.00;100613.16;4972983;28;20043;-70
2022/10/21 01:46:13;;;;;;;26.13;13.70;;;;;;;12.38;100.00;100604.09;4972546;28;20038;-70
2022/10/21 01:48:46;;;;;;;31.05;15.15;;;;;;;12.34;100.00;100602.63;4972610;28;20491;-71
2022/10/21 01:51:12;;;;;;;22.50;13.43;;;;;;;12.26;100.00;100595.06;4986058;28;20030;-70
2022/10/21 01:53:46;;;;;;;23.85;12.55;;;;;;;12.22;100.00;100597.22;4975254;28;20355;-71
2022/10/21 01:56:14;;;;;;;24.95;13.82;;;;;;;12.18;100.00;100593.00;4972645;28;20185;-70
2022/10/21 01:58:42;;;;;;;20.33;11.90;;;;;;;12.15;100.00;100595.13;4955041;28;20011;-71
2022/10/21 02:01:09;;;;;;;23.35;13.70;;;;;;;12.10;100.00;100590.03;4973617;28;20244;-70
2022/10/21 02:03:39;;;;;;;19.25;11.95;;;;;;;12.07;100.00;100584.84;4970184;28;20065;-70
2022/10/21 02:06:05;;;;;;;25.58;13.38;;;;;;;12.04;100.00;100576.94;4972782;28;20042;-71
2022/10/21 02:08:30;;;;;;;19.38;12.93;;;;;;;11.99;100.00;100585.50;4970913;28;20113;-70
2022/10/21 02:11:00;;;;;;;38.85;12.40;;;;;;;11.95;100.00;100589.47;4971033;28;20039;-72
2022/10/21 02:13:33;;;;;;;24.23;13.05;;;;;;;11.89;100.00;100583.63;4989803;28;20031;-70
2022/10/21 02:16:01;;;;;;;23.38;12.43;;;;;;;11.89;100.00;100580.91;4983184;28;20061;-70
2022/10/21 02:18:27;;;;;;;19.08;11.52;;;;;;;11.83;100.00;100575.97;4972922;28;20038;-72
2022/10/21 02:21:00;;;;;;;19.27;11.60;;;;;;;11.75;100.00;100568.41;4990931;28;20030;-70
2022/10/21 02:23:34;;;;;;;21.95;11.18;;;;;;;11.71;100.00;100559.59;4991008;28;20109;-70
2022/10/21 02:26:01;;;;;;;28.60;12.05;;;;;;;11.66;100.00;100558.25;4988181;28;20034;-70
2022/10/21 02:28:26;;;;;;;15.80;10.02;;;;;;;11.62;100.00;100557.63;4987273;28;20030;-70
2022/10/21 02:31:00;;;;;;;20.98;11.23;;;;;;;11.61;100.00;100563.19;4984719;28;20040;-70
2022/10/21 02:33:42;;;;;;;17.13;10.13;;;;;;;11.56;100.00;100562.69;4985688;28;20467;-70
2022/10/21 02:36:15;;;;;;;17.52;10.73;;;;;;;11.54;100.00;100573.72;4989005;28;20042;-72
2022/10/21 02:38:46;;;;;;;20.88;11.45;;;;;;;11.57;100.00;100575.34;4989564;28;20038;-70
2022/10/21 02:41:15;;;;;;;27.92;12.38;;;;;;;11.60;100.00;100573.22;4990858;28;20478;-70
2022/10/21 02:43:59;;;;;;;25.10;12.98;;;;;;;11.62;100.00;100567.66;4987913;28;20035;-70
2022/10/21 02:46:25;;;;;;;26.60;13.30;;;;;;;11.63;100.00;100572.97;4972143;28;20042;-70
2022/10/21 02:48:50;;;;;;;25.38;12.38;;;;;;;11.64;100.00;100582.00;4971540;28;20050;-71
2022/10/21 02:51:16;;;;;;;26.20;14.07;;;;;;;11.66;100.00;100574.59;4976070;28;20030;-70
2022/10/21 02:53:41;;;;;;;26.23;13.57;;;;;;;11.78;100.00;100568.13;4986528;28;20029;-70
2022/10/21 02:56:07;;;;;;;25.98;13.82;;;;;;;11.72;100.00;100557.75;4990999;28;20064;-69
2022/10/21 02:58:33;;;;;;;20.27;11.82;;;;;;;11.67;100.00;100552.66;4991064;28;20146;-70
2022/10/21 03:00:58;;;;;;;21.38;11.70;;;;;;;11.66;100.00;100550.94;4972011;28;20097;-69
2022/10/21 03:03:24;;;;;;;23.55;12.90;;;;;;;11.66;100.00;100550.94;4971064;28;20124;-69
2022/10/21 03:05:50;;;;;;;21.15;12.23;;;;;;;11.59;100.00;100546.97;4971242;28;20439;-69
2022/10/21 03:08:15;;;;;;;26.17;12.05;;;;;;;11.61;100.00;100549.56;4969850;28;20041;-69
2022/10/21 03:10:40;;;;;;;19.08;11.75;;;;;;;11.59;100.00;100549.69;4971223;28;20136;-71
2022/10/21 03:13:06;;;;;;;21.95;12.40;;;;;;;11.59;100.00;100549.69;4976620;28;20027;-70
2022/10/21 03:15:31;;;;;;;19.90;12.30;;;;;;;11.58;100.00;100549.81;4970785;28;20057;-70
2022/10/21 03:17:57;;;;;;;22.08;12.25;;;;;;;11.59;100.00;100546.09;4955085;28;20387;-69
2022/10/21 03:20:22;;;;;;;25.70;13.18;;;;;;;11.58;100.00;100547.09;4969857;28;20038;-69
2022/10/21 03:22:47;;;;;;;23.63;12.73;;;;;;;11.57;100.00;100551.69;4970857;28;20045;-70
2022/10/21 03:25:13;;;;;;;26.80;13.23;;;;;;;11.57;100.00;100559.00;4970850;28;20489;-70
2022/10/21 03:27:38;;;;;;;26.23;12.38;;;;;;;11.57;100.00;100559.00;4971270;28;20035;-69
2022/10/21 03:30:05;;;;;;;22.48;11.70;;;;;;;11.55;100.00;100556.38;4971055;28;20034;-69
2022/10/21 03:32:30;;;;;;;20.88;12.05;;;;;;;11.52;100.00;100553.94;4970536;28;20371;-73
2022/10/21 03:34:56;;;;;;;21.77;12.00;;;;;;;11.50;100.00;100548.56;4969710;28;20038;-70
2022/10/21 03:37:21;;;;;;;22.58;12.20;;;;;;;11.49;100.00;100554.16;4987233;28;20439;-70
2022/10/21 03:39:47;;;;;;;26.67;11.93;;;;;;;11.45;100.00;100550.81;4989184;28;20041;-70
2022/10/21 03:42:12;;;;;;;22.48;12.52;;;;;;;11.46;100.00;100554.41;4986797;28;20041;-71
2022/10/21 03:44:37;;;;;;;19.55;11.48;;;;;;;11.46;100.00;100544.38;4986942;28;20038;-70
2022/10/21 03:47:03;;;;;;;25.88;12.13;;;;;;;11.45;100.00;100539.91;4986843;28;20793;-69
2022/10/21 03:49:28;;;;;;;19.20;10.93;;;;;;;11.45;100.00;100547.22;4972543;28;20085;-70
2022/10/21 03:51:53;;;;;;;22.48;11.65;;;;;;;11.44;100.00;100545.50;4988946;28;20038;-69
2022/10/21 03:54:19;;;;;;;21.92;11.65;;;;;;;11.42;100.00;100547.47;4984119;28;20030;-70
2022/10/21 03:56:45;;;;;;;24.92;12.30;;;;;;;11.39;100.00;100547.72;4971922;28;20038;-70
2022/10/21 03:59:10;;;;;;;22.73;12.20;;;;;;;11.45;100.00;100539.06;4971479;28;20046;-70
2022/10/21 04:01:36;;;;;;;24.50;10.88;;;;;;;11.39;100.00;100532.25;4970519;28;20034;-70
2022/10/21 04:04:01;;;;;;;24.38;11.85;;;;;;;11.39;100.00;100529.53;4969795;28;20066;-70
2022/10/21 04:06:26;;;;;;;18.80;11.27;;;;;;;11.34;100.00;100534.47;4970429;28;20600;-70
2022/10/21 04:08:52;;;;;;;18.17;10.55;;;;;;;11.32;100.00;100538.31;4968909;28;20074;-71
2022/10/21 04:11:17;;;;;;;18.40;10.80;;;;;;;11.29;100.00;100547.59;4969993;28;20023;-70
2022/10/21 04:13:43;;;;;;;16.15;10.57;;;;;;;11.24;100.00;100547.97;4952843;28;20038;-72
2022/10/21 04:16:13;;;;;;;21.23;9.90;;;;;;;11.24;100.00;100545.25;4969394;28;20061;-73
2022/10/21 04:18:38;;;;;;;20.30;9.98;;;;;;;11.22;100.00;100557.25;4970141;28;20030;-73
2022/10/21 04:21:04;;;;;;;19.75;9.25;;;;;;;11.16;100.00;100546.84;4969246;28;20403;-70
2022/10/21 04:23:29;;;;;;;19.85;9.85;;;;;;;11.11;100.00;100547.22;4982434;28;20057;-70
2022/10/21 04:25:55;;;;;;;16.85;9.13;;;;;;;11.04;100.00;100548.69;4978724;28;20387;-70
2022/10/21 04:28:20;;;;;;;20.40;8.18;;;;;;;10.99;100.00;100542.72;4968590;28;20359;-70
2022/10/21 04:30:45;;;;;;;14.95;8.30;;;;;;;10.93;100.00;100540.50;4965540;28;20054;-70
2022/10/21 04:33:11;;;;;;;102.60;9.55;;;;;;;10.91;100.00;100534.28;4969899;28;20059;-69
2022/10/21 04:35:39;;;;;;;11.85;7.78;;;;;;;10.86;100.00;100544.69;4970306;28;20070;-70
2022/10/21 04:38:04;;;;;;;13.50;7.72;;;;;;;10.82;100.00;100554.06;4970199;28;20034;-70
2022/10/21 04:40:29;;;;;;;20.70;8.80;;;;;;;10.79;100.00;100554.31;4970010;28;20046;-71
2022/10/21 04:42:54;;;;;;;12.93;7.78;;;;;;;10.77;100.00;100557.19;4970189;28;20100;-69
2022/10/21 04:45:20;;;;;;;15.00;8.15;;;;;;;10.77;100.00;100557.19;4976918;28;20105;-70
2022/10/21 04:47:45;;;;;;;13.85;8.70;;;;;;;10.76;100.00;100555.41;4968183;28;20142;-70
2022/10/21 04:50:10;;;;;;;17.52;8.93;;;;;;;10.77;100.00;100559.00;4969832;28;20094;-69
2022/10/21 04:52:37;;;;;;;13.43;8.20;;;;;;;10.79;100.00;100554.31;4968706;28;20482;-70
2022/10/21 04:55:03;;;;;;;15.73;8.73;;;;;;;10.76;100.00;100554.56;4968083;28;20121;-69
2022/10/21 04:57:28;;;;;;;15.70;8.30;;;;;;;10.74;100.00;100546.53;4969817;28;20207;-70
2022/10/21 04:59:53;;;;;;;18.50;8.07;;;;;;;10.77;100.00;100545.41;4969357;28;20066;-69
2022/10/21 05:02:19;;;;;;;16.17;8.13;;;;;;;10.68;100.00;100541.56;4983795;28;20030;-71
2022/10/21 05:04:44;;;;;;;12.63;7.28;;;;;;;10.65;100.00;100539.06;4969795;28;20046;-70
2022/10/21 05:07:10;;;;;;;12.50;7.25;;;;;;;10.71;100.00;100542.16;4969497;28;20066;-71
2022/10/21 05:09:35;;;;;;;12.95;7.28;;;;;;;10.68;100.00;100542.44;4969889;28;20037;-72
2022/10/21 05:12:01;;;;;;;12.13;7.00;;;;;;;10.66;100.00;100546.25;4987130;28;20038;-71
2022/10/21 05:14:26;;;;;;;13.95;6.80;;;;;;;10.66;100.00;100548.97;4984564;28;20110;-69
2022/10/21 05:16:51;;;;;;;10.80;6.55;;;;;;;10.65;100.00;100547.25;4973795;28;20039;-70
2022/10/21 05:19:17;;;;;;;10.65;6.47;;;;;;;10.65;100.00;100544.53;4973654;28;20132;-71
2022/10/21 05:21:42;;;;;;;12.60;6.72;;;;;;;10.66;100.00;100551.69;4991514;28;20494;-71
2022/10/21 05:24:08;;;;;;;13.98;7.22;;;;;;;10.65;100.00;100542.66;4978218;28;20026;-70
2022/10/21 05:26:33;;;;;;;12.13;7.30;;;;;;;10.66;100.00;100540.81;4972272;28;20036;-70
2022/10/21 05:28:58;;;;;;;10.73;5.82;;;;;;;10.61;100.00;100527.56;4972970;28;20463;-70
2022/10/21 05:31:25;;;;;;;14.23;6.57;;;;;;;10.66;100.00;100533.50;4972977;28;20208;-70
2022/10/21 05:33:50;;;;;;;10.02;5.72;;;;;;;10.64;100.00;100531.91;4972970;28;20038;-70
2022/10/21 05:36:16;;;;;;;10.73;6.28;;;;;;;10.67;100.00;100526.22;4985070;28;20367;-70
2022/10/21 05:38:41;;;;;;;9.30;6.15;;;;;;;10.66;100.00;100516.31;4977794;28;20039;-70
2022/10/21 05:41:09;;;;;;;10.70;6.50;;;;;;;10.62;100.00;100515.69;4972998;28;20039;-72
2022/10/21 05:43:35;;;;;;;12.98;6.43;;;;;;;10.62;100.00;100507.53;4992687;28;20105;-70
2022/10/21 05:46:01;;;;;;;13.25;6.28;;;;;;;10.63;100.00;100513.81;4984846;28;20397;-71
2022/10/21 05:48:26;;;;;;;11.60;6.18;;;;;;;10.62;100.00;100509.38;4987398;28;20030;-71
2022/10/21 05:50:53;;;;;;;9.60;5.28;;;;;;;10.65;100.00;100507.28;4991992;28;20537;-70
2022/10/21 05:53:19;;;;;;;8.80;5.28;;;;;;;10.65;100.00;100509.16;4991568;28;20529;-70
2022/10/21 05:55:44;;;;;;;7.93;5.05;;;;;;;10.68;100.00;100503.47;4985585;28;20066;-70
2022/10/21 05:58:10;;;;;;;9.18;6.25;;;;;;;10.67;100.00;100497.16;4972449;28;20038;-71
2022/10/21 06:00:35;;;;;;;10.85;5.47;;;;;;;10.68;100.00;100506.19;4972555;28;20125;-71
2022/10/21 06:03:00;;;;;;;10.02;5.40;;;;;;;10.67;100.00;100505.31;4972064;28;20462;-70
2022/10/21 06:05:26;;;;;;;9.55;5.55;;;;;;;10.68;100.00;100507.06;4955213;28;20546;-70
2022/10/21 06:07:51;;;;;;;7.68;5.00;;;;;;;10.67;100.00;100518.03;4972514;28;20039;-70
2022/10/21 06:10:17;;;;;;;12.85;5.50;;;;;;;10.68;100.00;100514.38;4972026;28;20045;-70
2022/10/21 06:12:42;;;;;;;10.95;5.10;;;;;;;10.67;100.00;100508.03;4971015;28;20134;-70
2022/10/21 06:15:08;;;;;;;8.23;5.25;;;;;;;10.68;100.00;100503.47;4973550;28;20038;-70
2022/10/21 06:17:34;;;;;;;11.52;4.75;;;;;;;10.67;100.00;100496.28;4972257;28;20069;-70
2022/10/21 06:20:00;;;;;;;7.50;4.90;;;;;;;10.64;100.00;100499.25;4971245;28;20503;-70
2022/10/21 06:22:26;;;;;;;10.45;5.15;;;;;;;10.65;100.00;100506.44;4976078;28;20407;-71
2022/10/21 06:24:52;;;;;;;10.00;5.57;;;;;;;10.66;100.00;100500.84;4985517;28;20050;-70
2022/10/21 06:27:17;;;;;;;11.52;5.38;;;;;;;10.65;100.00;100501.00;4971330;28;20487;-71
2022/10/21 06:29:42;;;;;;;9.90;5.63;;;;;;;10.65;100.00;100504.56;4971856;28;20058;-70
2022/10/21 06:32:08;;;;;;;11.35;5.15;;;;;;;10.65;100.00;100499.13;4970619;28;20057;-70
2022/10/21 06:34:33;;;;;;;6.53;4.55;;;;;;;10.68;100.00;100501.63;4970601;28;20030;-70
2022/10/21 06:36:58;;;;;;;9.25;4.90;;;;;;;10.69;100.00;100497.91;4972037;28;20114;-70
2022/10/21 06:39:24;;;;;;;8.35;4.43;;;;;;;10.68;100.00;100507.06;4954324;28;20030;-72
2022/10/21 06:41:49;;;;;;;10.02;4.70;;;;;;;10.68;100.00;100512.50;4971839;28;20045;-70
2022/10/21 06:44:34;;;;;;;12.52;4.90;;;;;;;10.68;100.00;100515.22;4971685;28;20037;-70
2022/10/21 06:47:00;;;;;;;8.07;4.68;;;;;;;10.68;100.00;100523.38;4969460;28;20038;-71
2022/10/21 06:49:25;;;;;;;11.50;5.45;;;;;;;10.73;100.00;100518.44;4971632;28;20037;-70
2022/10/21 06:51:51;;;;;;;10.27;5.72;;;;;;;10.75;100.00;100523.75;4971855;28;20066;-72
2022/10/21 06:54:16;;;;;;;13.25;5.82;;;;;;;10.78;100.00;100533.56;4971481;28;20101;-71
2022/10/21 06:56:41;;;;;;;12.48;6.20;;;;;;;10.84;100.00;100544.81;4971680;28;20520;-70
2022/10/21 06:59:09;;;;;;;8.63;5.53;;;;;;;10.86;100.00;100550.13;4971404;28;20451;-70
2022/10/21 07:01:35;;;;;;;7.85;5.18;;;;;;;10.87;100.00;100549.16;4986602;28;20474;-72
2022/10/21 07:04:02;;;;;;;13.70;5.30;;;;;;;10.88;100.00;100561.78;4986141;28;20070;-73
2022/10/21 07:06:29;;;;;;;10.10;6.47;;;;;;;10.91;100.00;100561.50;4971471;28;20070;-70
2022/10/21 07:08:54;;;;;;;10.52;5.70;;;;;;;10.93;100.00;100560.41;4971005;28;20130;-70
2022/10/21 07:11:20;;;;;;;11.30;6.82;;;;;;;11.02;100.00;100560.69;4971076;28;20523;-70
2022/10/21 07:13:45;;;;;;;14.75;6.35;;;;;;;11.06;100.00;100573.94;4969828;28;20053;-71
2022/10/21 07:16:17;;;;;;;11.65;6.50;;;;;;;11.16;100.00;100579.53;4970842;28;20031;-70
2022/10/21 07:18:42;;;;;;;14.93;5.63;;;;;;;11.19;100.00;100573.81;4971329;28;20045;-70
2022/10/21 07:21:11;;;;;;;15.38;6.82;;;;;;;11.29;100.00;100579.44;4971471;28;20045;-70
2022/10/21 07:23:36;;;;;;;10.60;6.03;;;;;;;11.34;100.00;100574.47;4965669;28;20042;-70
2022/10/21 07:26:03;;;;;;;10.63;5.40;;;;;;;11.44;100.00;100570.00;4969911;28;20027;-71
2022/10/21 07:28:29;;;;;;;13.80;6.97;;;;;;;11.50;100.00;100575.81;4970856;28;20049;-70
2022/10/21 07:30:54;;;;;;;11.43;5.57;;;;;;;11.56;100.00;100589.94;4970414;28;20360;-71
2022/10/21 07:33:20;;;;;;;8.30;5.07;;;;;;;11.63;100.00;100585.75;4970868;28;20504;-70
2022/10/21 07:35:45;;;;;;;9.30;4.90;;;;;;;11.75;100.00;100582.03;4985600;28;20509;-70
2022/10/21 07:38:11;;;;;;;10.95;5.20;;;;;;;11.81;100.00;100583.38;4970446;28;20042;-70
2022/10/21 07:40:41;;;;;;;11.27;5.65;;;;;;;11.89;100.00;100587.25;4971149;28;20045;-71
2022/10/21 07:43:07;;;;;;;9.48;5.03;;;;;;;11.97;100.00;100589.31;4970938;28;20035;-70
2022/10/21 07:45:33;;;;;;;13.55;6.00;;;;;;;12.04;100.00;100587.84;4966955;28;20034;-71
2022/10/21 07:47:58;;;;;;;13.38;5.38;;;;;;;12.09;100.00;100596.50;4970521;28;20125;-70
2022/10/21 07:50:24;;;;;;;8.15;6.35;;;;;;;12.16;100.00;100585.94;4970755;28;20475;-70
2022/10/21 07:52:49;;;;;;;14.80;5.90;;;;;;;12.21;100.00;100594.59;4970524;28;20617;-70
2022/10/21 07:55:16;;;;;;;9.13;5.63;;;;;;;12.30;100.00;100592.97;4970428;28;20030;-71
2022/10/21 07:57:43;;;;;;;11.60;5.95;;;;;;;12.36;100.00;100595.19;4970408;28;20054;-70
2022/10/21 08:00:10;;;;;;;17.33;6.25;;;;;;;12.41;100.00;100596.53;4970160;28;20042;-72
2022/10/21 08:02:39;;;;;;;12.20;6.00;;;;;;;12.46;100.00;100601.59;4967989;28;20504;-73
2022/10/21 08:05:05;;;;;;;9.48;5.30;;;;;;;12.54;100.00;100595.47;4970706;28;20047;-70
2022/10/21 08:07:31;;;;;;;12.13;5.45;;;;;;;12.59;100.00;100595.97;4970288;28;20035;-71
2022/10/21 08:09:57;;;;;;;13.35;5.28;;;;;;;12.63;100.00;100600.16;4968288;28;20034;-70
2022/10/21 08:12:23;;;;;;;10.82;6.35;;;;;;;12.66;100.00;100586.25;4970198;28;20041;-70
2022/10/21 08:14:49;;;;;;;10.35;4.97;;;;;;;12.68;100.00;100578.81;4966715;28;20034;-70
2022/10/21 08:17:14;;;;;;;11.25;5.65;;;;;;;12.70;100.00;100588.59;4970072;28;20149;-70
2022/10/21 08:19:40;;;;;;;12.05;5.60;;;;;;;12.72;100.00;100583.00;4970242;28;20140;-70
2022/10/21 08:22:05;;;;;;;9.20;5.50;;;;;;;12.71;100.00;100582.13;4954226;28;20045;-70
2022/10/21 08:24:31;;;;;;;10.45;5.80;;;;;;;12.70;100.00;100580.41;4964544;28;20439;-71
2022/10/21 08:26:56;;;;;;;12.52;5.45;;;;;;;12.71;100.00;100576.69;4970025;28;20061;-72
2022/10/21 08:29:21;;;;;;;12.27;5.63;;;;;;;12.73;100.00;100585.63;4969883;28;20462;-71
2022/10/21 08:31:47;;;;;;;15.35;6.30;;;;;;;12.74;100.00;100591.94;4960426;28;20483;-70
2022/10/21 08:34:12;;;;;;;8.35;5.60;;;;;;;12.72;100.00;100600.25;4968794;28;20117;-70
2022/10/21 08:36:38;;;;;;;9.95;6.32;;;;;;;12.73;100.00;100603.88;4970484;28;20248;-70
2022/10/21 08:39:04;;;;;;;12.15;6.07;;;;;;;12.74;100.00;100594.69;4963403;28;20058;-70
2022/10/21 08:41:29;;;;;;;12.18;5.78;;;;;;;12.76;100.00;100600.84;4969897;28;20470;-70
2022/10/21 08:44:05;;;;;;;13.82;6.45;;;;;;;12.79;100.00;100600.59;4969788;28;20204;-72
2022/10/21 08:47:10;;;;;;;10.30;5.85;;;;;;;12.81;100.00;100609.50;4968248;28;20117;-70
2022/10/21 08:49:44;;;;;;;12.95;5.72;;;;;;;12.83;100.00;100626.66;4954361;28;20502;-71
2022/10/21 08:52:18;;;;;;;14.50;6.85;;;;;;;12.88;100.00;100626.25;4973892;28;20173;-71
2022/10/21 08:54:58;;;;;;;18.02;6.55;;;;;;;12.92;100.00;100620.41;4973858;28;20061;-71
2022/10/21 08:57:24;;;;;;;12.45;6.88;;;;;;;12.97;100.00;100617.28;4973849;28;20097;-70
2022/10/21 08:59:49;;;;;;;9.77;5.90;;;;;;;12.99;100.00;100607.06;4973414;28;20031;-71
2022/10/21 09:02:34;;;;;;;9.52;5.57;;;;;;;13.07;100.00;100611.88;4973409;28;20140;-70
2022/10/21 09:05:17;;;;;;;9.27;5.38;;;;;;;13.16;100.00;100633.78;4973643;28;20391;-71
2022/10/21 09:08:00;;;;;;;11.80;5.93;;;;;;;13.24;100.00;100622.22;4973567;28;20430;-71
2022/10/21 09:10:52;;;;;;;11.35;5.18;;;;;;;13.32;100.00;100629.75;4973425;28;20034;-70
2022/10/21 09:13:41;;;;;;;9.30;5.32;;;;;;;13.37;100.00;100633.81;4973432;28;20045;-70
2022/10/21 09:33:32;;;;;;;9.45;4.43;;;;;;;13.70;100.00;100609.97;5721769;23;20060;-74
2022/10/21 09:36:05;;;;;;;10.45;4.20;;;;;;;13.74;100.00;100612.28;5018713;28;20038;-74
2022/10/21 09:39:01;;;;;;;7.13;4.22;;;;;;;13.84;100.00;100614.19;5012588;28;20033;-74
2022/10/21 09:41:36;;;;;;;9.02;4.40;;;;;;;13.93;100.00;100605.16;5030398;28;20041;-74
2022/10/21 09:44:01;;;;;;;8.65;4.00;;;;;;;14.08;100.00;100611.09;5026621;28;20046;-76
2022/10/21 09:46:27;;;;;;;8.75;4.50;;;;;;;14.19;100.00;100594.59;5012071;28;20377;-75
2022/10/21 09:48:55;;;;;;;12.32;4.22;;;;;;;14.32;100.00;100595.19;5012064;28;20045;-74
2022/10/21 09:51:32;;;;;;;9.55;3.85;;;;;;;14.45;100.00;100603.97;4995256;28;20152;-74
2022/10/21 09:54:06;;;;;;;8.65;4.22;;;;;;;14.59;100.00;100601.88;5012158;28;20056;-74
2022/10/21 09:56:42;;;;;;;10.68;4.28;;;;;;;14.68;100.00;100593.66;5010538;28;20495;-74
2022/10/21 09:59:10;;;;;;;10.48;4.47;;;;;;;14.80;100.00;100598.00;5010745;28;20042;-75
2022/10/21 10:01:38;;;;;;;9.45;3.97;;;;;;;14.93;100.00;100603.19;4994382;28;20042;-74
2022/10/21 10:04:19;;;;;;;7.05;3.65;;;;;;;15.04;100.00;100604.91;5009756;28;20045;-74
2022/10/21 10:06:45;;;;;;;7.03;3.83;;;;;;;15.13;100.00;100611.38;5011762;28;20330;-74
2022/10/21 10:09:31;;;;;;;7.82;3.90;;;;;;;15.22;100.00;100611.34;5019299;28;20061;-74
2022/10/21 10:12:02;;;;;;;8.63;3.63;;;;;;;15.33;100.00;100618.53;5016699;28;20057;-74
2022/10/21 10:14:29;;;;;;;7.07;3.60;;;;;;;15.41;100.00;100615.94;5022077;28;20050;-74
2022/10/21 10:16:56;;;;;;;5.32;3.08;;;;;;;15.45;100.00;100617.38;5011327;28;20064;-74
2022/10/21 10:19:26;;;;;;;7.82;3.83;;;;;;;15.52;100.00;100629.47;5009860;28;20129;-74
2022/10/21 10:22:14;;;;;;;7.63;3.92;;;;;;;15.60;100.00;100631.47;5010851;28;20036;-75
2022/10/21 10:24:41;;;;;;;9.77;3.92;;;;;;;15.69;100.00;100630.59;5010128;28;20429;-74
2022/10/21 10:27:14;;;;;;;10.02;4.03;;;;;;;15.74;100.00;100639.25;5010487;28;20034;-74
2022/10/21 10:29:41;;;;;;;8.85;4.43;;;;;;;15.88;100.00;100626.94;5011660;28;20440;-74
2022/10/21 10:32:13;;;;;;;9.48;4.30;;;;;;;16.00;100.00;100636.69;5010229;28;20041;-75
2022/10/21 10:34:51;;;;;;;6.97;4.00;;;;;;;16.13;100.00;100628.09;5011274;28;20121;-75
2022/10/21 10:37:20;;;;;;;16.38;4.53;;;;;;;16.27;100.00;100634.97;5010362;28;20056;-74
2022/10/21 10:39:48;;;;;;;7.00;4.15;;;;;;;16.40;100.00;100632.72;5010293;28;20062;-75
2022/10/21 10:42:20;;;;;;;11.95;4.97;;;;;;;16.47;100.00;100633.84;5011124;28;20034;-74
2022/10/21 10:44:46;;;;;;;9.15;4.68;;;;;;;16.56;100.00;100629.31;5011013;28;20092;-75
2022/10/21 10:47:26;;;;;;;8.88;5.03;;;;;;;16.59;100.00;100631.72;4993512;28;20041;-74
2022/10/21 10:49:51;;;;;;;9.13;4.55;;;;;;;16.70;100.00;100637.00;5009646;28;20095;-75
2022/10/21 10:52:21;;;;;;;7.90;4.50;;;;;;;16.79;100.00;100643.50;5011373;28;20453;-74
2022/10/21 10:54:48;;;;;;;12.27;6.28;;;;;;;16.88;100.00;100637.06;5009654;28;20433;-74
2022/10/21 10:57:22;;;;;;;10.88;4.78;;;;;;;16.93;99.95;100640.19;5011242;28;20045;-74
2022/10/21 11:00:05;;;;;;;9.50;5.13;;;;;;;17.04;100.00;100634.44;5003908;28;20185;-74
2022/10/21 11:02:30;;;;;;;;;;;;;;;17.19;100.00;100633.88;5030867;28;20086;-75
2022/10/21 11:05:26;;;;;;;8.27;4.50;;;;;;;17.28;99.99;100616.41;4993500;28;19917;-74
2022/10/21 11:08:00;;;;;;;11.50;4.40;;;;;;;17.37;97.46;100620.09;5012572;28;22720;-74
2022/10/21 11:10:41;;;;;;;10.25;5.35;;;;;;;17.47;96.89;100623.59;5014936;28;20046;-74
2022/10/21 11:13:19;;;;;;;8.10;4.13;;;;;;;17.55;95.69;100608.03;5020497;28;20044;-74
2022/10/21 11:16:13;;;;;;;10.30;4.30;;;;;;;17.64;94.67;100608.94;5024314;28;20395;-74
2022/10/21 11:19:00;;;;;;;11.30;5.20;;;;;;;17.77;92.65;100601.16;5017247;28;20045;-74
2022/10/21 11:21:36;;;;;;;15.05;5.43;;;;;;;17.91;90.73;100590.53;5015721;28;20045;-74
2022/10/21 11:24:14;;;;;;;8.55;5.38;;;;;;;18.16;93.87;100600.63;5013060;28;20180;-74
2022/10/21 11:27:11;;;;;;;9.98;5.05;;;;;;;18.38;91.77;100612.94;5024992;28;20045;-74
2022/10/21 11:29:41;;;;;;;8.13;4.30;;;;;;;18.59;89.71;100615.19;5001990;28;20061;-74
2022/10/21 11:32:28;;;;;;;13.32;4.32;;;;;;;18.66;91.85;100618.16;5030406;28;20045;-74
2022/10/21 11:34:59;;;;;;;7.07;3.90;;;;;;;18.71;85.93;100619.41;5009815;28;20045;-74
2022/10/21 11:37:40;;;;;;;7.50;3.50;;;;;;;18.76;86.56;100619.75;5010881;28;20040;-74